Tutwiler, Mississippi
Current Conditions -  °F | °C
As of 2:35 PM on Friday 21 Nov 2014 (Local Time) from KCKM Reporting Station
Few Clouds Few Clouds  
Wind Chill: 64°   Ceiling: Unl
Heat Index: 64°   Visibility: 10mi
Dew Point: 50°   Wind: 6mph
Humidity: 59%   Direction: 100°E
Pressure: 30.26"   Gusts: NA
Location:  34.01°N, 90.43°W
Report Text: KCKM 212035Z AUTO 10005KT 10SM FEW085 FEW100 18/10 A3026 RMK AO1
Loading
Personal Weather Stations






























Interactive Weather Map New forecast layout! Learn more

10-Day Weather Forecast

Advertisements
Track Severe Weather on mobile